Time;durP1;ratioP1;P1;durP2;ratioP2;P2;SDS_P1;SDS_P2;PMS_P1;PMS_P2;Temp;Humidity;BMP_temperature;BMP_pressure;BME280_temperature;BME280_humidity;BME280_pressure;Samples;Min_cycle;Max_cycle;Signal;HPM_P1;HPM_P2
2024/01/11 00:02:09;;;;;;;7.93;4.27;;;-0.10;99.90;;;;;;4993841;28;20389;-19
2024/01/11 00:04:35;;;;;;;9.68;4.78;;;-0.10;99.90;;;;;;4983622;28;20029;-19
2024/01/11 00:07:01;;;;;;;9.33;4.83;;;-0.10;99.90;;;;;;4977415;28;20148;-19
2024/01/11 00:09:26;;;;;;;8.60;4.45;;;-0.10;99.90;;;;;;4989835;28;20046;-20
2024/01/11 00:11:52;;;;;;;10.65;5.00;;;1.50;99.90;;;;;;4979097;28;20319;-21
2024/01/11 00:14:18;;;;;;;11.33;5.50;;;-0.10;99.90;;;;;;4994735;28;20076;-20
2024/01/11 00:16:43;;;;;;;10.88;4.70;;;-0.10;99.90;;;;;;4994767;28;20042;-20
2024/01/11 00:19:09;;;;;;;7.60;4.10;;;-0.10;99.90;;;;;;4995725;28;20042;-23
2024/01/11 00:21:35;;;;;;;10.80;4.85;;;-0.20;99.90;;;;;;4991681;28;20054;-21
2024/01/11 00:24:01;;;;;;;10.00;4.33;;;-0.20;99.90;;;;;;4980473;28;20088;-21
2024/01/11 00:26:26;;;;;;;8.50;4.45;;;-0.20;99.90;;;;;;4991639;28;20231;-22
2024/01/11 00:28:52;;;;;;;8.30;4.83;;;-0.20;99.90;;;;;;4982626;28;20120;-26
2024/01/11 00:31:18;;;;;;;8.10;4.53;;;-0.10;99.90;;;;;;4993285;28;20330;-23
2024/01/11 00:33:43;;;;;;;9.38;4.38;;;-0.20;99.90;;;;;;4986520;28;20412;-23
2024/01/11 00:36:09;;;;;;;9.47;5.13;;;-0.20;99.90;;;;;;4993746;28;20243;-22
2024/01/11 00:38:35;;;;;;;8.07;4.90;;;-0.20;99.90;;;;;;4995888;28;20538;-26
2024/01/11 00:41:01;;;;;;;8.07;4.33;;;-0.20;99.90;;;;;;4991695;28;20490;-22
2024/01/11 00:43:26;;;;;;;8.40;4.65;;;-0.20;99.90;;;;;;4995258;28;20067;-22
2024/01/11 00:45:52;;;;;;;9.20;4.60;;;-0.20;99.90;;;;;;4980567;28;20732;-23
2024/01/11 00:48:18;;;;;;;9.75;5.40;;;-0.20;99.90;;;;;;4997534;28;20038;-22
2024/01/11 00:50:43;;;;;;;8.67;4.70;;;-0.30;99.90;;;;;;4993797;28;20338;-25
2024/01/11 00:53:11;;;;;;;9.07;4.20;;;-0.30;99.90;;;;;;4993525;28;20211;-22
2024/01/11 00:55:36;;;;;;;9.15;4.40;;;-0.30;99.90;;;;;;4976281;28;20043;-21
2024/01/11 00:58:02;;;;;;;8.60;4.37;;;-0.30;99.90;;;;;;4985649;28;20208;-24
2024/01/11 01:00:28;;;;;;;8.27;4.40;;;-0.30;99.90;;;;;;4994386;28;20046;-22
2024/01/11 01:02:54;;;;;;;8.73;4.50;;;-0.30;99.90;;;;;;4993867;28;20305;-22
2024/01/11 01:05:19;;;;;;;7.95;4.35;;;-0.30;99.90;;;;;;4990898;28;20356;-22
2024/01/11 01:07:45;;;;;;;11.00;5.00;;;-0.30;99.90;;;;;;4991114;28;20246;-23
2024/01/11 01:10:11;;;;;;;8.73;4.57;;;0.90;99.90;;;;;;4992928;28;20112;-23
2024/01/11 01:12:37;;;;;;;7.38;4.05;;;-0.30;99.90;;;;;;4991329;28;20266;-21
2024/01/11 01:15:03;;;;;;;9.13;4.70;;;-0.30;99.90;;;;;;4973851;28;20338;-23
2024/01/11 01:17:29;;;;;;;9.30;4.68;;;-0.30;99.90;;;;;;4995881;28;20088;-21
2024/01/11 01:19:54;;;;;;;9.23;4.60;;;1.60;99.90;;;;;;4991720;28;20034;-22
2024/01/11 01:22:20;;;;;;;9.48;4.32;;;-0.30;99.90;;;;;;4993037;28;20369;-24
2024/01/11 01:24:46;;;;;;;9.57;5.00;;;-0.30;99.90;;;;;;4995270;28;20199;-22
2024/01/11 01:27:11;;;;;;;9.73;4.70;;;-0.20;99.90;;;;;;4992277;28;20086;-24
2024/01/11 01:29:37;;;;;;;7.90;4.07;;;-0.20;99.90;;;;;;4985755;28;20034;-23
2024/01/11 01:32:03;;;;;;;10.73;4.53;;;-0.20;99.90;;;;;;4993227;28;20046;-22
2024/01/11 01:34:28;;;;;;;9.18;4.80;;;-0.10;99.90;;;;;;4990875;28;20327;-23
2024/01/11 01:36:54;;;;;;;8.27;4.75;;;-1.40;99.90;;;;;;4992179;28;20066;-22
2024/01/11 01:39:20;;;;;;;11.43;5.07;;;-0.10;99.90;;;;;;4992080;28;20039;-20
2024/01/11 01:41:46;;;;;;;9.10;4.57;;;-0.10;99.90;;;;;;4961017;28;20022;-20
2024/01/11 01:44:11;;;;;;;10.37;4.07;;;-0.10;99.90;;;;;;4993364;28;20354;-20
2024/01/11 01:46:38;;;;;;;9.70;4.38;;;-0.10;99.90;;;;;;4993289;28;20041;-21
2024/01/11 01:49:04;;;;;;;7.28;3.97;;;-0.10;99.90;;;;;;4987382;28;20052;-20
2024/01/11 01:51:32;;;;;;;7.10;4.17;;;1.30;99.90;;;;;;4988580;28;20150;-20
2024/01/11 01:53:59;;;;;;;8.75;4.40;;;-0.20;99.90;;;;;;4992375;28;20022;-19
2024/01/11 01:56:25;;;;;;;8.18;4.22;;;-0.20;99.90;;;;;;4989928;28;20053;-19
2024/01/11 01:58:53;;;;;;;9.32;4.50;;;-0.20;99.90;;;;;;4979112;28;20041;-19
2024/01/11 02:01:20;;;;;;;8.15;4.05;;;-0.20;99.90;;;;;;4978228;28;20033;-20
2024/01/11 02:03:49;;;;;;;8.30;4.40;;;-0.30;99.90;;;;;;4978953;28;20109;-22
2024/01/11 02:06:15;;;;;;;8.98;4.43;;;-0.30;99.90;;;;;;4989098;28;20030;-20
2024/01/11 02:08:43;;;;;;;10.38;4.60;;;-0.30;99.90;;;;;;4990719;28;20069;-20
2024/01/11 02:11:11;;;;;;;8.90;4.50;;;-0.30;99.90;;;;;;4987797;28;20373;-19
2024/01/11 02:13:37;;;;;;;7.17;3.73;;;-0.30;99.90;;;;;;4989278;28;20026;-19
2024/01/11 02:16:03;;;;;;;8.18;4.07;;;-0.40;99.90;;;;;;4991494;28;20362;-20
2024/01/11 02:18:29;;;;;;;7.30;3.80;;;-0.40;99.90;;;;;;4989807;28;20113;-20
2024/01/11 02:20:56;;;;;;;7.27;3.80;;;-0.40;99.90;;;;;;4992055;28;20077;-20
2024/01/11 02:23:24;;;;;;;8.27;4.47;;;-0.40;99.90;;;;;;4989062;28;20048;-21
2024/01/11 02:25:50;;;;;;;10.18;5.03;;;-0.40;99.90;;;;;;4990213;28;20046;-19
2024/01/11 02:28:15;;;;;;;8.52;4.70;;;-0.40;99.90;;;;;;4994863;28;20088;-20
2024/01/11 02:30:42;;;;;;;8.07;3.53;;;-0.50;99.90;;;;;;4983241;28;20057;-19
2024/01/11 02:33:09;;;;;;;7.25;3.90;;;-2.20;99.90;;;;;;4990410;28;20326;-20
2024/01/11 02:35:37;;;;;;;7.72;4.05;;;-0.50;99.90;;;;;;4995136;28;20066;-20
2024/01/11 02:38:03;;;;;;;7.35;4.18;;;-0.50;99.90;;;;;;4993436;28;20053;-20
2024/01/11 02:40:29;;;;;;;8.30;4.20;;;-0.50;99.90;;;;;;4992712;28;20038;-20
2024/01/11 02:42:55;;;;;;;8.15;4.20;;;-0.50;99.90;;;;;;4992367;28;20118;-19
2024/01/11 02:45:21;;;;;;;7.43;4.25;;;-0.50;99.90;;;;;;4992299;28;20045;-19
2024/01/11 02:47:46;;;;;;;8.97;4.70;;;-0.50;99.90;;;;;;4990358;28;20038;-20
2024/01/11 02:50:12;;;;;;;10.05;4.00;;;-0.60;99.90;;;;;;4990355;28;20039;-19
2024/01/11 02:52:38;;;;;;;7.73;4.20;;;-0.50;99.90;;;;;;4991518;28;20038;-18
2024/01/11 02:55:04;;;;;;;8.40;4.65;;;-0.60;99.90;;;;;;4994849;28;20052;-20
2024/01/11 02:57:30;;;;;;;7.53;4.18;;;-0.60;99.90;;;;;;4991600;28;20046;-19
2024/01/11 02:59:55;;;;;;;10.43;4.00;;;-0.60;99.90;;;;;;4993481;28;20081;-20
2024/01/11 03:02:21;;;;;;;7.33;4.20;;;-0.40;99.90;;;;;;4995453;28;20042;-19
2024/01/11 03:04:47;;;;;;;8.90;4.90;;;-0.60;99.90;;;;;;4996252;28;20345;-20
2024/01/11 03:07:13;;;;;;;8.45;4.07;;;-0.60;99.90;;;;;;4995898;28;20046;-19
2024/01/11 03:09:38;;;;;;;8.13;4.10;;;-0.70;99.90;;;;;;4976767;28;20030;-19
2024/01/11 03:12:06;;;;;;;8.55;4.35;;;-0.70;99.90;;;;;;4998152;28;20034;-19
2024/01/11 03:14:32;;;;;;;8.23;4.07;;;-0.70;99.90;;;;;;4995817;28;20102;-19
2024/01/11 03:16:57;;;;;;;7.13;3.80;;;-0.70;99.90;;;;;;4994120;28;20052;-19
2024/01/11 03:19:23;;;;;;;8.00;3.80;;;-0.70;99.90;;;;;;4993843;28;20053;-19
2024/01/11 03:21:48;;;;;;;7.90;3.90;;;-0.70;99.90;;;;;;4996866;28;20038;-19
2024/01/11 03:24:14;;;;;;;7.43;4.17;;;-0.70;99.90;;;;;;4993290;28;20034;-20
2024/01/11 03:26:41;;;;;;;7.18;4.32;;;-0.70;99.90;;;;;;4994624;28;20113;-20
2024/01/11 03:29:07;;;;;;;7.05;4.00;;;-0.70;99.90;;;;;;4980386;28;20348;-19
2024/01/11 03:31:32;;;;;;;7.73;3.97;;;-0.70;99.90;;;;;;4997895;28;20050;-19
2024/01/11 03:33:58;;;;;;;8.10;4.23;;;-0.70;99.90;;;;;;4996347;28;20038;-19
2024/01/11 03:36:24;;;;;;;8.27;4.22;;;-0.70;99.90;;;;;;4996413;28;20045;-20
2024/01/11 03:38:50;;;;;;;9.50;4.20;;;-0.80;99.90;;;;;;4993314;28;20074;-19
2024/01/11 03:41:16;;;;;;;9.07;4.20;;;-0.80;99.90;;;;;;4997034;28;20038;-19
2024/01/11 03:43:42;;;;;;;7.93;4.38;;;-0.80;99.90;;;;;;4996058;28;20034;-20
2024/01/11 03:46:07;;;;;;;8.77;4.33;;;-0.70;99.90;;;;;;4979433;28;20045;-19
2024/01/11 03:48:35;;;;;;;8.15;4.18;;;-0.80;99.90;;;;;;4996719;28;20041;-19
2024/01/11 03:51:01;;;;;;;9.55;4.63;;;-0.80;99.90;;;;;;4994329;28;20250;-19
2024/01/11 03:53:27;;;;;;;6.43;3.97;;;-0.80;99.90;;;;;;4994803;28;20030;-19
2024/01/11 03:55:53;;;;;;;8.38;4.15;;;-0.70;99.90;;;;;;4997119;28;20179;-18
2024/01/11 03:58:19;;;;;;;8.50;4.40;;;-0.80;99.90;;;;;;4982055;28;20038;-21
2024/01/11 04:00:45;;;;;;;8.80;4.77;;;-0.80;99.90;;;;;;4989569;28;20027;-18
2024/01/11 04:03:10;;;;;;;10.25;5.30;;;-0.80;99.90;;;;;;4975734;28;20042;-19
2024/01/11 04:05:36;;;;;;;9.03;4.70;;;-0.70;99.90;;;;;;4996895;28;20528;-19
2024/01/11 04:08:06;;;;;;;8.55;4.43;;;-0.70;99.90;;;;;;4995508;28;20049;-19
2024/01/11 04:10:32;;;;;;;7.83;3.87;;;-0.70;99.90;;;;;;4995105;28;20101;-18
2024/01/11 04:12:58;;;;;;;9.88;5.07;;;-0.70;99.90;;;;;;4992449;28;20034;-19
2024/01/11 04:15:24;;;;;;;9.27;4.43;;;-0.70;99.90;;;;;;4995001;28;20177;-19
2024/01/11 04:17:49;;;;;;;9.10;4.80;;;-0.70;99.90;;;;;;4995213;28;20519;-22
2024/01/11 04:20:15;;;;;;;8.93;4.38;;;-0.70;99.90;;;;;;4981642;28;20391;-19
2024/01/11 04:22:41;;;;;;;8.70;4.17;;;-0.70;99.90;;;;;;4998715;28;20105;-19
2024/01/11 04:25:07;;;;;;;8.48;4.60;;;-2.70;99.90;;;;;;4994471;28;20041;-20
2024/01/11 04:27:33;;;;;;;9.07;4.53;;;-0.70;99.90;;;;;;4996250;28;20050;-18
2024/01/11 04:29:58;;;;;;;8.97;3.93;;;-0.70;99.90;;;;;;4996809;28;20052;-19
2024/01/11 04:32:24;;;;;;;8.93;4.53;;;-0.70;99.90;;;;;;4997001;28;20121;-18
2024/01/11 04:34:50;;;;;;;12.07;5.65;;;-0.70;99.90;;;;;;4977017;28;20106;-19
2024/01/11 04:37:16;;;;;;;10.25;4.72;;;-3.00;99.90;;;;;;4976388;28;20026;-18
2024/01/11 04:39:42;;;;;;;9.40;4.50;;;-0.70;99.90;;;;;;4997264;28;20034;-17
2024/01/11 04:42:07;;;;;;;10.82;5.05;;;-2.70;99.90;;;;;;4996537;28;20049;-20
2024/01/11 04:44:33;;;;;;;11.53;5.27;;;-0.70;99.90;;;;;;4993793;28;20035;-19
2024/01/11 04:46:59;;;;;;;11.43;5.10;;;-0.70;99.90;;;;;;4992695;28;20050;-19
2024/01/11 04:49:25;;;;;;;8.30;4.53;;;-0.70;99.90;;;;;;4991753;28;20026;-18
2024/01/11 04:51:50;;;;;;;10.45;5.15;;;-0.70;99.90;;;;;;4981013;28;20129;-18
2024/01/11 04:54:16;;;;;;;10.07;4.90;;;-0.70;99.90;;;;;;4980254;28;20381;-19
2024/01/11 04:56:42;;;;;;;11.00;4.80;;;-0.70;99.90;;;;;;4992123;28;20084;-18
2024/01/11 04:59:07;;;;;;;8.50;4.23;;;-0.70;99.90;;;;;;4992686;28;20072;-18
2024/01/11 05:01:33;;;;;;;8.70;4.72;;;-0.70;99.90;;;;;;4995003;28;20324;-18
2024/01/11 05:03:59;;;;;;;8.70;4.53;;;-0.70;99.90;;;;;;4994388;28;20070;-19
2024/01/11 05:06:24;;;;;;;9.18;4.95;;;-0.70;99.90;;;;;;4995044;28;20263;-19
2024/01/11 05:08:54;;;;;;;9.17;4.60;;;-0.70;99.90;;;;;;4994064;28;20034;-21
2024/01/11 05:11:21;;;;;;;11.50;5.93;;;-0.70;99.90;;;;;;4992511;28;20263;-20
2024/01/11 05:13:47;;;;;;;9.00;4.88;;;-0.70;99.90;;;;;;4972500;28;20038;-19
2024/01/11 05:16:23;;;;;;;12.07;5.47;;;-0.70;99.90;;;;;;4991945;28;20137;-19
2024/01/11 05:18:53;;;;;;;13.70;5.93;;;-0.70;99.90;;;;;;4992263;28;20026;-18
2024/01/11 05:21:20;;;;;;;10.55;5.40;;;-0.70;99.90;;;;;;4974369;28;20104;-19
2024/01/11 05:23:46;;;;;;;11.23;6.00;;;-0.80;99.90;;;;;;4992135;28;20049;-20
2024/01/11 05:26:13;;;;;;;10.07;5.28;;;-0.80;99.90;;;;;;4975103;28;20094;-18
2024/01/11 05:28:39;;;;;;;9.30;5.07;;;-0.80;99.90;;;;;;4992259;28;20053;-18
2024/01/11 05:31:07;;;;;;;13.10;6.17;;;-0.80;99.90;;;;;;4990880;28;20258;-19
2024/01/11 05:33:33;;;;;;;11.95;5.70;;;-0.80;99.90;;;;;;4976339;28;20120;-18
2024/01/11 05:35:59;;;;;;;10.43;4.97;;;-0.80;99.90;;;;;;4958208;28;20357;-18
2024/01/11 05:38:25;;;;;;;11.57;4.93;;;-0.90;99.90;;;;;;4997723;28;20038;-18
2024/01/11 05:40:50;;;;;;;11.15;5.50;;;-0.90;99.90;;;;;;4991392;28;20385;-18
2024/01/11 05:43:16;;;;;;;8.83;4.73;;;-0.90;99.90;;;;;;4994117;28;20046;-18
2024/01/11 05:45:42;;;;;;;10.95;5.38;;;-0.90;99.90;;;;;;4997480;28;20262;-21
2024/01/11 05:48:10;;;;;;;11.40;5.97;;;-0.90;99.90;;;;;;4995926;28;20318;-18
2024/01/11 05:50:35;;;;;;;10.85;5.85;;;-0.90;99.90;;;;;;4998539;28;20042;-17
2024/01/11 05:53:01;;;;;;;12.80;6.27;;;-0.90;99.90;;;;;;4993640;28;20054;-18
2024/01/11 05:55:27;;;;;;;10.87;5.47;;;-0.90;99.90;;;;;;4990477;28;20717;-18
2024/01/11 05:57:52;;;;;;;12.40;5.43;;;-0.90;99.90;;;;;;4993670;28;20482;-18
2024/01/11 06:00:18;;;;;;;12.20;5.80;;;-0.90;99.90;;;;;;4973378;28;20168;-19
2024/01/11 06:02:44;;;;;;;11.20;5.13;;;-0.90;99.90;;;;;;4989419;28;20338;-17
2024/01/11 06:05:12;;;;;;;13.43;5.73;;;-1.00;99.90;;;;;;4991367;28;20509;-17
2024/01/11 06:07:38;;;;;;;10.10;5.40;;;-1.00;99.90;;;;;;4990436;28;20073;-18
2024/01/11 06:10:05;;;;;;;9.68;4.85;;;-1.00;99.90;;;;;;4990650;28;20345;-19
2024/01/11 06:12:31;;;;;;;10.53;4.70;;;-0.90;99.90;;;;;;4993302;28;20042;-18
2024/01/11 06:14:57;;;;;;;10.25;5.15;;;-1.00;99.90;;;;;;4994496;28;20034;-18
2024/01/11 06:17:23;;;;;;;8.35;4.43;;;-1.00;99.90;;;;;;4989357;28;20041;-18
2024/01/11 06:19:49;;;;;;;11.70;5.03;;;-0.90;99.90;;;;;;4991411;28;20505;-19
2024/01/11 06:22:15;;;;;;;9.87;4.53;;;-0.90;99.90;;;;;;4991937;28;20057;-19
2024/01/11 06:24:41;;;;;;;11.27;5.53;;;-0.90;99.90;;;;;;4988251;28;20034;-19
2024/01/11 06:27:06;;;;;;;8.87;4.90;;;-0.90;99.90;;;;;;4991746;28;20066;-21
2024/01/11 06:29:32;;;;;;;8.77;4.63;;;-0.90;99.90;;;;;;4993234;28;20369;-19
2024/01/11 06:31:58;;;;;;;9.07;4.60;;;-0.90;99.90;;;;;;4988627;28;20299;-18
2024/01/11 06:34:24;;;;;;;8.70;4.40;;;-0.90;99.90;;;;;;4990629;28;20050;-18
2024/01/11 06:36:49;;;;;;;9.33;4.67;;;-0.90;99.90;;;;;;4991128;28;20056;-18
2024/01/11 06:39:15;;;;;;;9.70;5.00;;;-0.60;99.90;;;;;;4988863;28;20105;-20
2024/01/11 06:41:41;;;;;;;7.97;4.13;;;-1.00;99.90;;;;;;4993258;28;20030;-19
2024/01/11 06:44:06;;;;;;;9.73;4.55;;;-0.90;99.90;;;;;;4978814;28;20085;-20
2024/01/11 06:46:32;;;;;;;10.03;4.93;;;-1.00;99.90;;;;;;4987764;28;20050;-19
2024/01/11 06:48:58;;;;;;;8.10;4.28;;;-1.00;99.90;;;;;;4979301;28;20042;-19
2024/01/11 06:51:24;;;;;;;7.57;4.18;;;-1.00;99.90;;;;;;4975431;28;20057;-20
2024/01/11 06:53:50;;;;;;;8.10;4.10;;;-1.00;99.90;;;;;;4992420;28;20136;-20
2024/01/11 06:56:16;;;;;;;7.70;4.47;;;-4.40;99.90;;;;;;4990804;28;20046;-19
2024/01/11 06:58:45;;;;;;;7.95;4.30;;;-1.00;99.90;;;;;;4988460;28;20249;-21
2024/01/11 07:01:12;;;;;;;9.37;4.80;;;-1.00;99.90;;;;;;4975679;28;20364;-20
2024/01/11 07:03:38;;;;;;;8.98;4.63;;;-1.10;99.90;;;;;;4984174;28;20115;-20
2024/01/11 07:06:04;;;;;;;9.65;4.75;;;-0.20;99.90;;;;;;4977731;28;20045;-19
2024/01/11 07:08:31;;;;;;;8.73;4.55;;;-1.10;99.90;;;;;;4985214;28;20090;-20
2024/01/11 07:10:57;;;;;;;8.88;4.88;;;-1.10;99.90;;;;;;4975993;28;20057;-20
2024/01/11 07:13:23;;;;;;;10.43;5.20;;;-1.10;99.90;;;;;;4986688;28;20034;-19
2024/01/11 07:15:48;;;;;;;12.88;5.13;;;-1.10;99.90;;;;;;4972271;28;20031;-19
2024/01/11 07:18:14;;;;;;;9.50;4.83;;;-1.10;99.90;;;;;;4977372;28;20581;-20
2024/01/11 07:20:40;;;;;;;9.18;4.25;;;-1.10;99.90;;;;;;4983250;28;20034;-20
2024/01/11 07:23:06;;;;;;;10.07;4.50;;;-1.20;99.90;;;;;;4986294;28;20046;-20
2024/01/11 07:25:34;;;;;;;9.10;4.50;;;-1.20;99.90;;;;;;4990743;28;20089;-20
2024/01/11 07:28:00;;;;;;;8.47;4.37;;;-1.20;99.90;;;;;;4980995;28;20352;-20
2024/01/11 07:30:26;;;;;;;8.45;4.60;;;-1.20;99.90;;;;;;4988927;28;20026;-20
2024/01/11 07:32:52;;;;;;;9.77;4.60;;;-1.20;99.90;;;;;;4974937;28;20285;-20
2024/01/11 07:35:17;;;;;;;8.07;4.37;;;-1.30;99.90;;;;;;4991032;28;20033;-21
2024/01/11 07:37:43;;;;;;;8.68;4.80;;;-1.30;99.90;;;;;;4988793;28;20504;-19
2024/01/11 07:40:13;;;;;;;9.40;4.30;;;-1.20;99.90;;;;;;4982196;28;20355;-22
2024/01/11 07:42:40;;;;;;;7.68;4.10;;;-1.30;99.90;;;;;;4993639;28;20297;-22
2024/01/11 07:45:07;;;;;;;9.93;5.00;;;-1.20;99.90;;;;;;4979837;28;20475;-20
2024/01/11 07:47:33;;;;;;;10.77;4.97;;;-1.30;99.90;;;;;;4996670;28;20198;-21
2024/01/11 07:49:59;;;;;;;8.60;4.88;;;-1.20;99.90;;;;;;4995277;28;20027;-19
2024/01/11 07:52:25;;;;;;;9.57;4.73;;;-1.30;99.90;;;;;;4993103;28;20528;-20
2024/01/11 07:54:51;;;;;;;8.68;4.40;;;-1.30;99.90;;;;;;4997113;28;20030;-20
2024/01/11 07:57:16;;;;;;;9.77;4.47;;;-1.30;99.90;;;;;;4981725;28;20073;-19
2024/01/11 07:59:42;;;;;;;8.98;4.40;;;-1.30;99.90;;;;;;4994447;28;20041;-21
2024/01/11 08:02:08;;;;;;;9.90;5.20;;;-1.30;99.90;;;;;;4995292;28;20111;-22
2024/01/11 08:04:34;;;;;;;8.77;4.18;;;-1.30;99.90;;;;;;4997366;28;20037;-20
2024/01/11 08:06:59;;;;;;;9.45;5.10;;;-1.30;99.90;;;;;;4979849;28;20046;-20
2024/01/11 08:09:26;;;;;;;11.50;5.27;;;-1.30;99.90;;;;;;4997149;28;20023;-21
2024/01/11 08:11:55;;;;;;;11.57;5.18;;;-1.20;99.90;;;;;;4993555;28;20053;-20
2024/01/11 08:14:21;;;;;;;8.10;4.53;;;-1.30;99.90;;;;;;4992032;28;20334;-21
2024/01/11 08:16:46;;;;;;;9.10;4.83;;;-1.20;99.90;;;;;;4968522;28;20033;-21
2024/01/11 08:19:15;;;;;;;9.30;4.90;;;-1.20;99.90;;;;;;4994489;28;20235;-20
2024/01/11 08:21:42;;;;;;;13.23;6.30;;;-1.20;99.90;;;;;;4975857;28;20050;-21
2024/01/11 08:24:08;;;;;;;13.67;5.93;;;-1.10;99.90;;;;;;4977991;28;20065;-22
2024/01/11 08:26:34;;;;;;;10.43;5.43;;;-1.10;99.90;;;;;;4974605;28;20205;-21
2024/01/11 08:28:59;;;;;;;10.27;5.20;;;-1.00;99.90;;;;;;4971923;28;20399;-22
2024/01/11 08:31:25;;;;;;;11.67;5.30;;;-0.80;99.90;;;;;;4973205;28;20281;-22
2024/01/11 08:33:51;;;;;;;11.90;6.07;;;-0.80;99.90;;;;;;4973134;28;20023;-21
2024/01/11 08:36:17;;;;;;;15.20;6.80;;;-0.70;99.90;;;;;;4972600;28;20038;-22
2024/01/11 08:38:45;;;;;;;16.17;7.15;;;-0.50;99.90;;;;;;4976370;28;20037;-22
2024/01/11 08:41:11;;;;;;;16.65;6.60;;;-0.40;99.90;;;;;;4972806;28;20401;-21
2024/01/11 08:43:37;;;;;;;15.70;7.47;;;-0.30;99.90;;;;;;4967795;28;20047;-22
2024/01/11 08:46:03;;;;;;;13.65;6.80;;;-0.10;99.90;;;;;;4973953;28;20023;-23
2024/01/11 08:48:28;;;;;;;14.80;7.13;;;0.10;99.90;;;;;;4939561;28;20038;-23
2024/01/11 08:50:54;;;;;;;15.53;7.70;;;0.30;99.90;;;;;;4971429;28;20266;-24
2024/01/11 08:53:21;;;;;;;15.37;7.17;;;0.50;99.90;;;;;;4976860;28;20037;-21
2024/01/11 08:55:47;;;;;;;16.30;7.88;;;0.60;99.90;;;;;;4974453;28;20470;-22
2024/01/11 08:58:12;;;;;;;16.98;7.18;;;0.80;99.90;;;;;;4956419;28;20050;-23
2024/01/11 09:00:38;;;;;;;16.07;7.77;;;0.90;99.90;;;;;;4977114;28;20481;-20
2024/01/11 09:03:04;;;;;;;16.52;7.88;;;1.00;99.90;;;;;;4974656;28;20442;-21
2024/01/11 09:05:30;;;;;;;16.47;7.77;;;1.10;99.90;;;;;;4974990;28;20518;-22
2024/01/11 09:07:55;;;;;;;16.73;7.43;;;1.20;99.90;;;;;;4972065;28;20038;-21
2024/01/11 09:10:22;;;;;;;15.43;7.90;;;1.20;99.90;;;;;;4974793;28;20030;-20
2024/01/11 09:12:48;;;;;;;14.95;7.22;;;1.30;99.90;;;;;;4971115;28;20313;-20
2024/01/11 09:15:14;;;;;;;14.35;7.13;;;1.30;99.90;;;;;;4972470;28;20050;-20
2024/01/11 09:17:40;;;;;;;15.47;7.07;;;1.40;99.90;;;;;;4955156;28;20026;-21
2024/01/11 09:20:06;;;;;;;16.13;7.47;;;1.40;99.90;;;;;;4973489;28;20031;-21
2024/01/11 09:22:32;;;;;;;17.30;8.20;;;1.40;99.90;;;;;;4992570;28;20042;-20
2024/01/11 09:25:08;;;;;;;18.65;8.57;;;1.50;99.90;;;;;;4990525;28;20021;-21
2024/01/11 09:27:33;;;;;;;16.07;7.93;;;1.50;99.90;;;;;;4994271;28;20433;-21
2024/01/11 09:30:03;;;;;;;13.02;6.45;;;1.60;99.90;;;;;;4971614;28;20030;-20
2024/01/11 09:32:30;;;;;;;15.88;7.60;;;1.70;99.90;;;;;;4992710;28;20101;-19
2024/01/11 09:34:56;;;;;;;16.30;7.68;;;1.90;99.90;;;;;;4994037;28;20034;-19
2024/01/11 09:37:22;;;;;;;15.77;7.87;;;2.00;99.90;;;;;;4993943;28;20040;-18
2024/01/11 09:39:48;;;;;;;16.55;7.43;;;2.30;99.90;;;;;;4961014;28;20105;-18
2024/01/11 09:42:14;;;;;;;16.30;8.00;;;2.60;99.90;;;;;;4992004;28;20070;-18
2024/01/11 09:44:41;;;;;;;17.35;8.23;;;2.80;99.90;;;;;;4994758;28;20053;-17
2024/01/11 09:47:10;;;;;;;16.40;8.38;;;3.20;99.90;;;;;;4988175;28;20230;-17
2024/01/11 09:49:37;;;;;;;17.33;8.07;;;3.40;99.90;;;;;;4990726;28;20073;-17
2024/01/11 09:52:05;;;;;;;17.52;8.10;;;3.80;99.90;;;;;;4993445;28;20090;-16
2024/01/11 09:54:30;;;;;;;17.45;7.65;;;4.20;99.90;;;;;;4987547;28;20026;-16
2024/01/11 09:56:59;;;;;;;18.92;7.90;;;4.60;99.90;;;;;;4991011;28;20207;-16
2024/01/11 09:59:25;;;;;;;16.87;8.10;;;5.00;99.90;;;;;;4990529;28;21187;-17
2024/01/11 10:01:51;;;;;;;18.88;8.15;;;5.40;99.90;;;;;;4989729;28;20046;-16
2024/01/11 10:04:17;;;;;;;14.82;8.15;;;5.80;99.90;;;;;;4990914;28;20764;-17
2024/01/11 10:06:43;;;;;;;17.52;9.18;;;6.20;99.90;;;;;;4977403;28;20362;-18
2024/01/11 10:09:09;;;;;;;15.98;8.63;;;6.50;99.90;;;;;;4991505;28;20360;-18
2024/01/11 10:11:36;;;;;;;15.83;8.73;;;6.80;99.90;;;;;;4993549;28;20069;-17
2024/01/11 10:14:02;;;;;;;16.35;9.00;;;7.00;99.90;;;;;;4990502;28;20301;-18
2024/01/11 10:16:29;;;;;;;15.73;8.05;;;7.30;99.90;;;;;;4993139;28;20022;-19
2024/01/11 10:18:55;;;;;;;14.73;8.02;;;7.50;99.90;;;;;;4992707;28;20038;-19
2024/01/11 10:21:22;;;;;;;14.53;8.23;;;7.60;99.90;;;;;;4972675;28;20034;-20
2024/01/11 10:23:49;;;;;;;15.23;8.15;;;7.80;99.90;;;;;;4983104;28;20046;-20
2024/01/11 10:26:18;;;;;;;14.93;8.07;;;8.10;99.90;;;;;;4976488;28;20030;-20
2024/01/11 10:28:47;;;;;;;15.55;8.63;;;8.30;99.90;;;;;;4988915;28;20034;-22
2024/01/11 10:31:17;;;;;;;14.57;8.10;;;8.50;99.90;;;;;;4990021;28;20053;-20
2024/01/11 10:33:45;;;;;;;14.43;7.90;;;8.70;99.90;;;;;;4993437;28;20109;-23
2024/01/11 10:36:11;;;;;;;14.90;8.20;;;8.80;99.90;;;;;;4993027;28;20326;-20
2024/01/11 10:38:39;;;;;;;13.20;7.57;;;9.00;99.90;;;;;;4978430;28;20101;-20
2024/01/11 10:41:06;;;;;;;14.38;8.18;;;9.20;99.90;;;;;;4993674;28;20063;-21
2024/01/11 10:43:36;;;;;;;13.75;7.57;;;9.30;99.90;;;;;;4989884;28;20260;-20
2024/01/11 10:46:04;;;;;;;13.60;7.93;;;9.40;99.90;;;;;;4990403;28;20204;-21
2024/01/11 10:48:34;;;;;;;12.07;7.25;;;9.50;99.90;;;;;;4987500;28;20189;-20
2024/01/11 10:51:02;;;;;;;12.07;6.65;;;9.60;99.90;;;;;;4989883;28;20212;-21
2024/01/11 10:53:47;;;;;;;11.57;6.88;;;9.80;99.90;;;;;;4957854;28;20083;-22
2024/01/11 10:56:16;;;;;;;13.27;7.15;;;9.90;99.90;;;;;;4987745;28;20047;-21
2024/01/11 10:58:43;;;;;;;13.23;7.10;;;10.00;99.90;;;;;;4975592;28;20082;-22
2024/01/11 11:01:11;;;;;;;14.15;7.57;;;10.20;99.90;;;;;;4989456;28;20352;-23
2024/01/11 11:03:38;;;;;;;12.82;7.10;;;10.20;99.90;;;;;;4995892;28;20018;-23
2024/01/11 11:06:07;;;;;;;11.13;6.60;;;10.30;99.90;;;;;;4989429;28;20026;-22
2024/01/11 11:08:34;;;;;;;13.27;7.50;;;10.30;99.90;;;;;;4989782;28;20335;-21
2024/01/11 11:11:07;;;;;;;12.37;7.10;;;10.40;99.90;;;;;;4988035;28;20073;-22
2024/01/11 11:13:36;;;;;;;11.38;6.55;;;10.50;99.90;;;;;;4987303;28;20031;-22
2024/01/11 11:16:06;;;;;;;11.10;6.80;;;10.50;99.90;;;;;;4995945;28;20030;-23
2024/01/11 11:18:34;;;;;;;11.68;6.90;;;10.60;99.90;;;;;;4975985;28;20038;-22
2024/01/11 11:21:00;;;;;;;11.43;6.47;;;10.70;99.90;;;;;;4978438;28;20088;-24
2024/01/11 11:23:26;;;;;;;11.70;6.80;;;10.70;99.90;;;;;;4994501;28;20550;-20
2024/01/11 11:25:57;;;;;;;11.30;7.03;;;10.90;99.90;;;;;;4996922;28;20329;-22
2024/01/11 11:28:24;;;;;;;12.50;7.47;;;10.90;99.90;;;;;;4993718;28;20034;-22
2024/01/11 11:30:52;;;;;;;11.60;7.10;;;11.00;99.90;;;;;;4993669;28;20045;-21
2024/01/11 11:33:19;;;;;;;12.88;7.22;;;11.10;99.90;;;;;;4991585;28;20046;-22
2024/01/11 11:35:49;;;;;;;10.77;6.88;;;11.20;99.90;;;;;;4979337;28;20280;-21
2024/01/11 11:38:20;;;;;;;12.27;7.10;;;11.20;99.90;;;;;;4993609;28;20030;-21
2024/01/11 11:40:48;;;;;;;13.00;7.30;;;11.30;99.90;;;;;;4994657;28;20435;-22
2024/01/11 11:43:16;;;;;;;11.70;7.20;;;11.40;99.90;;;;;;4978741;28;20045;-22
2024/01/11 11:45:43;;;;;;;11.70;7.18;;;11.40;99.90;;;;;;4991895;28;20026;-23
2024/01/11 11:48:38;;;;;;;12.05;7.22;;;11.50;99.90;;;;;;4994274;28;20064;-24
2024/01/11 11:51:17;;;;;;;11.90;7.15;;;11.50;99.90;;;;;;4994067;28;20381;-21
2024/01/11 11:53:44;;;;;;;11.30;6.35;;;11.50;99.90;;;;;;4992705;28;20031;-20
2024/01/11 11:56:12;;;;;;;10.93;6.53;;;11.50;99.90;;;;;;4993837;28;20046;-18
2024/01/11 11:58:41;;;;;;;11.43;6.70;;;11.50;99.90;;;;;;4973346;28;20077;-20
2024/01/11 12:01:07;;;;;;;9.88;6.18;;;11.50;99.90;;;;;;4996344;28;20047;-20
2024/01/11 12:03:37;;;;;;;10.10;6.15;;;11.50;99.90;;;;;;4993946;28;20042;-19
2024/01/11 12:06:05;;;;;;;10.50;6.07;;;11.60;99.90;;;;;;4994352;28;20093;-19
2024/01/11 12:08:31;;;;;;;11.02;6.63;;;11.60;99.90;;;;;;4997138;28;20035;-20
2024/01/11 12:10:57;;;;;;;13.20;7.70;;;11.50;99.90;;;;;;4991624;28;20038;-19
2024/01/11 12:13:24;;;;;;;11.65;7.10;;;11.50;99.90;;;;;;4979538;28;20096;-21
2024/01/11 12:15:50;;;;;;;11.68;6.93;;;11.30;99.90;;;;;;4989427;28;20033;-20
2024/01/11 12:18:16;;;;;;;13.33;7.10;;;11.10;99.90;;;;;;4998478;28;20038;-20
2024/01/11 12:20:42;;;;;;;11.95;6.63;;;10.90;99.90;;;;;;4975999;28;20081;-19
2024/01/11 12:23:08;;;;;;;12.07;6.88;;;10.60;99.90;;;;;;4988679;28;20219;-19
2024/01/11 12:25:35;;;;;;;11.33;6.27;;;10.40;99.90;;;;;;4978744;28;20042;-20
2024/01/11 12:28:01;;;;;;;11.93;7.00;;;10.10;99.90;;;;;;4989989;28;20036;-21
2024/01/11 12:30:27;;;;;;;11.50;6.65;;;9.90;99.90;;;;;;4996295;28;20471;-20
2024/01/11 12:32:54;;;;;;;14.55;7.20;;;9.60;99.90;;;;;;4984547;28;20401;-20
2024/01/11 12:35:20;;;;;;;11.55;6.50;;;9.40;99.90;;;;;;4991393;28;20050;-20
2024/01/11 12:38:12;;;;;;;9.90;5.23;;;9.10;99.90;;;;;;4983498;28;20044;-19
2024/01/11 12:40:39;;;;;;;12.15;6.65;;;9.00;99.90;;;;;;4993162;28;20089;-20